Time;durP1;ratioP1;P1;durP2;ratioP2;P2;SDS_P1;SDS_P2;PMS_P1;PMS_P2;Temp;Humidity;BMP_temperature;BMP_pressure;BME280_temperature;BME280_humidity;BME280_pressure;Samples;Min_cycle;Max_cycle;Signal;HPM_P1;HPM_P2
2023/10/31 00:00:54;;;;;;;25.52;14.15;;;;;;;19.68;100.00;101421.88;21173721;27;20052;-75
2023/10/31 00:11:16;;;;;;;21.30;14.50;;;;;;;19.61;100.00;101422.84;21205141;27;20043;-75
2023/10/31 00:21:40;;;;;;;23.80;13.35;;;;;;;19.57;100.00;101407.69;21190001;27;20047;-74
2023/10/31 00:32:03;;;;;;;20.98;13.73;;;;;;;19.52;100.00;101406.88;21161815;27;20039;-74
2023/10/31 00:42:27;;;;;;;19.35;13.75;;;;;;;19.45;100.00;101406.00;21188202;27;20514;-75
2023/10/31 00:52:50;;;;;;;21.17;14.32;;;;;;;19.61;100.00;101400.53;21154598;28;20051;-76
2023/10/31 01:03:14;;;;;;;18.92;13.70;;;;;;;19.66;100.00;101402.25;21159506;28;20096;-75
2023/10/31 01:13:36;;;;;;;19.90;12.55;;;;;;;19.64;100.00;101404.03;21144022;28;20056;-74
2023/10/31 01:24:01;;;;;;;19.40;13.52;;;;;;;19.63;100.00;101404.94;21141776;28;20126;-74
2023/10/31 01:34:23;;;;;;;21.65;14.38;;;;;;;19.66;100.00;101412.06;21144623;28;20085;-74
2023/10/31 01:44:47;;;;;;;20.95;13.85;;;;;;;19.70;100.00;101409.34;21148472;27;20056;-74
2023/10/31 01:55:11;;;;;;;19.83;13.13;;;;;;;19.48;100.00;101408.72;21214529;27;20051;-74
2023/10/31 02:05:36;;;;;;;20.30;12.98;;;;;;;19.53;100.00;101408.66;21210034;27;20049;-75
2023/10/31 02:15:59;;;;;;;21.27;13.07;;;;;;;19.54;100.00;101415.78;21211004;27;20581;-75
2023/10/31 02:26:24;;;;;;;22.38;12.95;;;;;;;19.70;100.00;101417.38;21223980;27;20043;-75
2023/10/31 02:36:46;;;;;;;21.65;13.85;;;;;;;19.85;100.00;101427.91;21208966;27;20039;-74
2023/10/31 02:47:11;;;;;;;22.63;13.70;;;;;;;19.90;100.00;101423.38;21207710;27;20047;-74
2023/10/31 02:57:33;;;;;;;19.30;12.35;;;;;;;19.85;100.00;101419.88;21221653;27;20376;-75
2023/10/31 03:07:58;;;;;;;20.75;13.10;;;;;;;19.81;100.00;101422.63;21193149;27;20047;-75
2023/10/31 03:18:21;;;;;;;19.00;13.10;;;;;;;19.87;100.00;101425.22;21219132;27;20039;-76
2023/10/31 03:28:46;;;;;;;21.27;14.05;;;;;;;19.81;100.00;101430.66;21204299;27;20043;-75
2023/10/31 03:39:09;;;;;;;20.45;13.25;;;;;;;19.64;100.00;101432.63;21203170;27;20051;-75
2023/10/31 03:49:33;;;;;;;20.08;13.70;;;;;;;19.65;100.00;101431.72;21216846;27;20093;-76
2023/10/31 03:59:56;;;;;;;20.35;13.45;;;;;;;19.58;100.00;101433.59;21204702;27;20051;-75
2023/10/31 04:10:21;;;;;;;18.00;12.77;;;;;;;19.42;100.00;101431.94;21203873;27;20305;-75
2023/10/31 04:20:43;;;;;;;16.67;11.88;;;;;;;19.52;100.00;101439.00;21217540;27;20043;-76
2023/10/31 04:31:07;;;;;;;22.15;14.40;;;;;;;19.55;100.00;101451.50;21202876;28;20046;-75
2023/10/31 04:41:30;;;;;;;23.38;13.82;;;;;;;19.50;100.00;101449.72;21216442;28;20099;-75
2023/10/31 04:51:55;;;;;;;25.95;14.80;;;;;;;19.55;100.00;101457.75;21217406;28;20130;-75
2023/10/31 05:02:17;;;;;;;25.50;14.55;;;;;;;19.50;100.00;101459.56;21214962;28;20070;-75
2023/10/31 05:12:42;;;;;;;23.65;14.23;;;;;;;19.49;100.00;101471.19;21213399;27;20054;-75
2023/10/31 05:23:04;;;;;;;24.40;14.48;;;;;;;19.45;100.00;101483.69;21223935;27;20056;-76
2023/10/31 05:33:29;;;;;;;25.33;14.73;;;;;;;19.57;100.00;101503.25;21229244;27;20134;-76
2023/10/31 05:43:52;;;;;;;21.27;12.35;;;;;;;19.89;100.00;101515.41;21226260;27;20051;-76
2023/10/31 05:54:16;;;;;;;17.95;10.85;;;;;;;20.10;100.00;101526.81;21146709;27;20051;-75
2023/10/31 06:04:39;;;;;;;15.18;8.05;;;;;;;20.95;100.00;101533.78;21142724;28;20124;-75
2023/10/31 06:15:04;;;;;;;16.45;8.82;;;;;;;21.51;100.00;101541.00;21138677;28;20051;-75
2023/10/31 06:25:27;;;;;;;22.38;10.10;;;;;;;21.44;100.00;101542.00;21138394;28;20051;-76
2023/10/31 06:35:53;;;;;;;20.65;10.02;;;;;;;21.67;100.00;101537.09;21109395;28;20505;-76
2023/10/31 06:46:16;;;;;;;19.23;8.70;;;;;;;21.68;100.00;101543.38;21158358;27;20043;-75
2023/10/31 06:56:40;;;;;;;18.75;8.63;;;;;;;21.69;100.00;101534.41;21223220;27;20057;-75
2023/10/31 07:07:02;;;;;;;15.70;8.57;;;;;;;21.79;100.00;101534.19;21188357;27;20043;-75
2023/10/31 07:17:26;;;;;;;12.00;5.88;;;;;;;23.27;100.00;101523.91;21210571;27;20645;-74
2023/10/31 07:27:49;;;;;;;11.65;5.05;;;;;;;23.94;100.00;101522.19;21171997;27;20504;-74
2023/10/31 07:38:14;;;;;;;12.20;5.32;;;;;;;23.52;100.00;101512.53;21202324;27;20050;-77
2023/10/31 07:48:37;;;;;;;14.85;5.50;;;;;;;24.21;100.00;101505.25;21202085;27;20048;-75
2023/10/31 07:59:02;;;;;;;13.30;5.43;;;;;;;23.91;100.00;101484.50;21193532;27;20549;-74
2023/10/31 08:09:24;;;;;;;12.40;5.53;;;;;;;23.80;100.00;101479.41;21201241;27;20134;-74
2023/10/31 08:19:49;;;;;;;17.55;5.78;;;;;;;24.42;100.00;101478.53;21202885;27;20395;-74
2023/10/31 08:30:12;;;;;;;9.23;5.18;;;;;;;24.10;100.00;101469.56;21218298;28;20499;-74
2023/10/31 08:40:37;;;;;;;14.25;5.22;;;;;;;24.16;100.00;101484.69;21204021;28;20064;-74
2023/10/31 08:50:59;;;;;;;13.27;4.60;;;;;;;24.77;100.00;101475.66;21222548;27;20059;-74
2023/10/31 09:01:25;;;;;;;12.90;4.97;;;;;;;24.69;100.00;101475.00;21195312;27;20051;-74
2023/10/31 09:11:47;;;;;;;13.07;4.78;;;;;;;24.74;100.00;101470.38;21218502;27;20043;-74
2023/10/31 09:22:11;;;;;;;16.08;5.50;;;;;;;24.68;100.00;101465.13;21159951;27;20047;-74
2023/10/31 09:32:34;;;;;;;12.60;4.75;;;;;;;25.11;100.00;101450.28;21197365;27;20126;-74
2023/10/31 09:42:58;;;;;;;12.95;4.28;;;;;;;25.86;100.00;101452.16;21123493;27;20104;-74
2023/10/31 09:53:21;;;;;;;10.90;3.80;;;;;;;26.40;100.00;101434.78;21094445;27;20055;-74
2023/10/31 10:03:45;;;;;;;10.32;3.10;;;;;;;27.32;100.00;101427.38;21110292;28;20048;-74
2023/10/31 10:14:10;;;;;;;13.77;3.55;;;;;;;27.80;100.00;101421.66;21103837;28;20059;-74
2023/10/31 10:24:35;;;;;;;11.77;3.67;;;;;;;28.24;100.00;101406.03;21113650;28;20070;-74
2023/10/31 10:34:58;;;;;;;9.33;3.07;;;;;;;28.63;100.00;101397.78;21081032;28;20074;-74
2023/10/31 10:45:23;;;;;;;10.70;3.80;;;;;;;28.27;99.75;101386.00;21150937;27;20165;-74
2023/10/31 10:55:52;;;;;;;12.32;3.42;;;;;;;28.14;95.44;101394.75;21225646;27;20059;-74
2023/10/31 11:06:17;;;;;;;10.75;3.55;;;;;;;27.84;93.93;101378.94;21221626;27;20043;-75
2023/10/31 11:16:44;;;;;;;10.20;3.15;;;;;;;27.71;91.52;101371.38;21222616;27;20487;-74
2023/10/31 11:27:09;;;;;;;12.15;3.33;;;;;;;27.50;89.70;101360.59;21220900;27;20130;-74
2023/10/31 11:37:35;;;;;;;11.57;4.00;;;;;;;26.94;93.01;101356.69;21217913;27;20171;-74
2023/10/31 11:47:59;;;;;;;10.97;4.57;;;;;;;26.38;100.00;101359.03;21217454;27;20399;-74
2023/10/31 11:58:25;;;;;;;12.55;5.30;;;;;;;26.51;100.00;101367.53;21220191;27;20295;-74
2023/10/31 12:08:50;;;;;;;10.20;4.03;;;;;;;26.25;100.00;101378.53;21214458;27;20046;-75
2023/10/31 12:19:15;;;;;;;16.23;4.68;;;;;;;26.18;100.00;101377.88;21210061;27;20043;-74
2023/10/31 12:29:40;;;;;;;10.13;3.80;;;;;;;25.95;100.00;101378.72;21248035;27;20065;-74
2023/10/31 12:40:04;;;;;;;11.57;3.78;;;;;;;26.00;100.00;101368.59;21233222;27;20051;-74
2023/10/31 12:50:28;;;;;;;11.25;3.85;;;;;;;26.15;100.00;101357.19;21217057;27;20060;-74
2023/10/31 13:00:51;;;;;;;10.25;3.75;;;;;;;26.07;100.00;101340.38;21226353;27;20047;-74
2023/10/31 13:11:17;;;;;;;12.65;3.80;;;;;;;25.81;100.00;101329.66;21258803;27;20043;-75
2023/10/31 13:21:40;;;;;;;8.38;3.67;;;;;;;25.79;100.00;101339.69;21206213;27;20154;-74
2023/10/31 13:32:06;;;;;;;11.15;4.07;;;;;;;25.69;100.00;101327.44;21199392;28;20039;-74
2023/10/31 13:42:29;;;;;;;8.77;4.22;;;;;;;25.38;100.00;101333.97;21208005;27;20441;-74
2023/10/31 13:52:53;;;;;;;11.05;4.72;;;;;;;25.10;100.00;101330.47;21228875;27;20047;-74
2023/10/31 14:03:16;;;;;;;12.20;5.05;;;;;;;24.85;100.00;101321.44;21185379;27;20058;-74
2023/10/31 14:13:41;;;;;;;9.95;4.82;;;;;;;24.73;100.00;101330.84;21230176;27;20055;-74
2023/10/31 14:24:04;;;;;;;12.63;5.57;;;;;;;24.44;100.00;101333.59;21247530;27;20549;-74
2023/10/31 14:34:28;;;;;;;16.00;5.30;;;;;;;24.32;100.00;101352.91;21207848;27;20562;-75
2023/10/31 14:44:50;;;;;;;11.98;5.57;;;;;;;24.09;100.00;101357.16;21205749;27;20054;-76
2023/10/31 14:55:15;;;;;;;15.70;6.65;;;;;;;23.90;100.00;101371.25;21205223;27;20050;-75
2023/10/31 15:05:37;;;;;;;14.98;6.07;;;;;;;23.70;100.00;101361.03;21223816;27;20047;-74
2023/10/31 15:16:02;;;;;;;19.25;6.30;;;;;;;23.47;100.00;101355.41;21223171;27;20146;-75
2023/10/31 15:26:26;;;;;;;18.05;8.13;;;;;;;23.25;100.00;101355.97;21206913;27;20047;-74
2023/10/31 15:36:50;;;;;;;18.42;7.03;;;;;;;23.02;100.00;101356.63;21219577;27;20104;-75
2023/10/31 15:47:14;;;;;;;18.90;6.70;;;;;;;22.69;100.00;101370.00;21216533;27;20047;-74
2023/10/31 15:57:39;;;;;;;13.80;7.00;;;;;;;22.48;100.00;101396.50;21201911;27;20567;-74
2023/10/31 16:08:02;;;;;;;17.02;6.93;;;;;;;22.25;100.00;101410.47;21194876;27;20047;-74
2023/10/31 16:18:26;;;;;;;13.05;7.32;;;;;;;22.03;100.00;101411.00;21207641;27;20155;-74
2023/10/31 16:28:49;;;;;;;15.75;7.38;;;;;;;21.93;100.00;101407.56;21239407;27;20139;-74
2023/10/31 16:39:13;;;;;;;15.00;7.40;;;;;;;21.73;100.00;101421.41;21182028;27;20053;-74
2023/10/31 16:49:36;;;;;;;13.82;7.38;;;;;;;21.54;100.00;101437.91;21237786;27;20046;-74
2023/10/31 16:59:59;;;;;;;16.70;7.72;;;;;;;21.36;100.00;101444.53;21218773;27;20047;-74
2023/10/31 17:10:22;;;;;;;19.52;10.27;;;;;;;21.20;100.00;101440.34;21224964;27;20051;-74
2023/10/31 17:20:47;;;;;;;15.40;8.68;;;;;;;21.05;100.00;101439.66;21233818;27;20092;-75
2023/10/31 17:31:11;;;;;;;17.20;8.73;;;;;;;20.92;100.00;101437.19;21218880;27;20039;-75
2023/10/31 17:41:35;;;;;;;16.88;8.77;;;;;;;20.56;100.00;101439.53;21228735;27;20430;-75
2023/10/31 17:52:01;;;;;;;18.88;10.43;;;;;;;20.60;100.00;101437.69;21220748;27;20070;-74
2023/10/31 18:02:27;;;;;;;19.55;10.25;;;;;;;20.46;100.00;101448.63;21198050;27;20051;-74
2023/10/31 18:12:51;;;;;;;21.23;11.10;;;;;;;20.32;100.00;101458.63;21208311;27;20043;-75
2023/10/31 18:23:15;;;;;;;20.85;10.88;;;;;;;20.28;100.00;101447.03;21204125;27;20039;-74
2023/10/31 18:33:38;;;;;;;19.00;9.45;;;;;;;20.10;100.00;101471.41;21228849;27;20250;-74
2023/10/31 18:44:02;;;;;;;17.75;9.77;;;;;;;20.01;100.00;101460.81;21200966;27;20046;-74
2023/10/31 18:54:25;;;;;;;13.13;7.38;;;;;;;19.83;100.00;101469.91;21264504;27;20047;-75
2023/10/31 19:04:49;;;;;;;14.88;8.38;;;;;;;19.61;100.00;101478.22;21256824;27;20045;-75
2023/10/31 19:15:11;;;;;;;14.15;7.00;;;;;;;19.59;100.00;101480.00;21237466;27;20047;-75
2023/10/31 19:25:36;;;;;;;11.43;6.50;;;;;;;19.49;100.00;101487.25;21250257;27;20498;-74
2023/10/31 19:35:58;;;;;;;11.82;5.88;;;;;;;19.36;100.00;101488.25;21250426;27;20043;-75
2023/10/31 19:46:22;;;;;;;8.80;5.70;;;;;;;19.21;100.00;101491.03;21256978;27;20054;-75
2023/10/31 19:56:45;;;;;;;10.02;5.40;;;;;;;19.09;100.00;101463.47;21245432;27;20368;-75
2023/10/31 20:07:09;;;;;;;9.60;5.82;;;;;;;18.94;100.00;101452.00;21167531;27;20039;-75
2023/10/31 20:17:33;;;;;;;9.63;5.38;;;;;;;18.71;100.00;101433.41;21197368;27;20070;-74
2023/10/31 20:27:57;;;;;;;11.05;5.60;;;;;;;18.51;100.00;101424.63;21208033;27;20047;-74
2023/10/31 20:38:20;;;;;;;9.65;4.47;;;;;;;18.19;100.00;101420.34;21197003;27;20039;-74
2023/10/31 20:48:45;;;;;;;10.73;5.50;;;;;;;18.04;100.00;101415.09;21213030;27;20071;-74
2023/10/31 20:59:07;;;;;;;10.68;4.45;;;;;;;17.70;100.00;101410.75;21224942;27;20104;-75
2023/10/31 21:09:31;;;;;;;8.07;3.90;;;;;;;17.59;100.00;101413.41;21210483;27;20688;-74
2023/10/31 21:19:54;;;;;;;7.13;3.55;;;;;;;17.59;100.00;101421.41;21221835;27;20130;-77
2023/10/31 21:30:19;;;;;;;7.25;3.28;;;;;;;17.60;100.00;101409.84;21242455;27;20058;-77
2023/10/31 21:40:42;;;;;;;6.10;2.97;;;;;;;17.64;100.00;101405.44;21133780;28;20044;-77
2023/10/31 21:51:06;;;;;;;9.48;4.13;;;;;;;17.59;100.00;101397.38;21133027;27;20051;-77
2023/10/31 22:01:29;;;;;;;5.55;2.85;;;;;;;17.52;100.00;101417.88;21223141;27;20080;-77
2023/10/31 22:11:53;;;;;;;6.13;2.22;;;;;;;17.48;100.00;101426.78;21222901;27;20043;-77
2023/10/31 22:22:17;;;;;;;7.57;2.60;;;;;;;17.35;100.00;101433.03;21207364;27;20051;-77
2023/10/31 22:32:41;;;;;;;10.27;4.78;;;;;;;17.53;100.00;101418.78;21167647;27;20051;-76
2023/10/31 22:43:04;;;;;;;11.25;5.20;;;;;;;17.45;100.00;101394.78;21191255;27;20058;-77
2023/10/31 22:53:29;;;;;;;4.70;2.00;;;;;;;17.09;100.00;101409.06;21142983;27;20411;-77
2023/10/31 23:03:52;;;;;;;4.90;2.15;;;;;;;16.89;100.00;101399.28;21214173;27;20070;-77
2023/10/31 23:14:17;;;;;;;8.07;3.72;;;;;;;17.10;100.00;101399.28;21220713;27;20059;-77
2023/10/31 23:24:41;;;;;;;7.07;3.53;;;;;;;17.28;100.00;101380.56;21189804;27;20051;-77
2023/10/31 23:35:07;;;;;;;4.10;2.20;;;;;;;17.23;100.00;101377.03;21219540;27;20051;-76
2023/10/31 23:45:30;;;;;;;6.97;2.63;;;;;;;17.15;100.00;101384.16;21216767;27;20055;-77
2023/10/31 23:55:54;;;;;;;9.27;3.83;;;;;;;17.27;100.00;101351.22;21183699;27;20472;-76
